sensor_id;sensor_type;location;lat;lon;timestamp;P1;durP1;ratioP1;P2;durP2;ratioP2
4959;SDS011;2495;48.200;11.532;2023-05-10T04:12:43;6.10;;;5.80;;
4959;SDS011;2495;48.200;11.532;2023-05-10T04:18:07;4.57;;;4.37;;
4959;SDS011;2495;48.200;11.532;2023-05-10T04:23:09;4.30;;;4.10;;
4959;SDS011;2495;48.200;11.532;2023-05-10T04:28:10;3.20;;;3.00;;
4959;SDS011;2495;48.200;11.532;2023-05-10T04:33:11;2.90;;;2.70;;
4959;SDS011;2495;48.200;11.532;2023-05-10T04:38:12;9.40;;;9.00;;
4959;SDS011;2495;48.200;11.532;2023-05-10T04:43:13;12.03;;;11.43;;
4959;SDS011;2495;48.200;11.532;2023-05-10T04:48:15;9.98;;;9.48;;
4959;SDS011;2495;48.200;11.532;2023-05-10T04:53:16;10.07;;;9.57;;
4959;SDS011;2495;48.200;11.532;2023-05-10T04:58:17;15.37;;;14.57;;
4959;SDS011;2495;48.200;11.532;2023-05-10T05:03:18;11.67;;;11.17;;
4959;SDS011;2495;48.200;11.532;2023-05-10T05:08:19;24.80;;;23.50;;
4959;SDS011;2495;48.200;11.532;2023-05-10T05:13:21;24.97;;;23.67;;
4959;SDS011;2495;48.200;11.532;2023-05-10T05:18:22;21.50;;;20.40;;
4959;SDS011;2495;48.200;11.532;2023-05-10T05:23:23;20.90;;;19.80;;
4959;SDS011;2495;48.200;11.532;2023-05-10T05:28:24;25.43;;;24.13;;
4959;SDS011;2495;48.200;11.532;2023-05-10T05:33:25;23.63;;;22.43;;
4959;SDS011;2495;48.200;11.532;2023-05-10T05:38:26;16.65;;;15.85;;
4959;SDS011;2495;48.200;11.532;2023-05-10T05:43:28;15.60;;;14.85;;
4959;SDS011;2495;48.200;11.532;2023-05-10T05:48:29;22.00;;;20.90;;
4959;SDS011;2495;48.200;11.532;2023-05-10T05:53:30;22.50;;;21.40;;
4959;SDS011;2495;48.200;11.532;2023-05-10T05:58:31;22.25;;;21.05;;
4959;SDS011;2495;48.200;11.532;2023-05-10T06:03:33;24.47;;;23.27;;
4959;SDS011;2495;48.200;11.532;2023-05-10T06:08:34;23.90;;;22.70;;
4959;SDS011;2495;48.200;11.532;2023-05-10T06:13:35;25.50;;;24.20;;
4959;SDS011;2495;48.200;11.532;2023-05-10T06:18:36;25.87;;;24.47;;
4959;SDS011;2495;48.200;11.532;2023-05-10T06:23:38;24.05;;;22.67;;
4959;SDS011;2495;48.200;11.532;2023-05-10T06:28:39;24.30;;;23.00;;
4959;SDS011;2495;48.200;11.532;2023-05-10T06:33:40;24.97;;;23.67;;
4959;SDS011;2495;48.200;11.532;2023-05-10T06:38:42;26.73;;;25.23;;
4959;SDS011;2495;48.200;11.532;2023-05-10T06:43:43;22.30;;;21.10;;
4959;SDS011;2495;48.200;11.532;2023-05-10T06:48:45;25.20;;;23.90;;
4959;SDS011;2495;48.200;11.532;2023-05-10T06:53:46;23.67;;;22.47;;
4959;SDS011;2495;48.200;11.532;2023-05-10T06:58:48;19.40;;;18.40;;
4959;SDS011;2495;48.200;11.532;2023-05-10T07:03:49;15.23;;;14.53;;
4959;SDS011;2495;48.200;11.532;2023-05-10T07:08:53;22.60;;;21.50;;
4959;SDS011;2495;48.200;11.532;2023-05-10T07:13:54;22.93;;;21.83;;
4959;SDS011;2495;48.200;11.532;2023-05-10T07:18:55;23.83;;;22.63;;
4959;SDS011;2495;48.200;11.532;2023-05-10T07:23:56;18.57;;;17.67;;
4959;SDS011;2495;48.200;11.532;2023-05-10T07:28:58;8.90;;;8.50;;
4959;SDS011;2495;48.200;11.532;2023-05-10T07:33:59;19.47;;;18.57;;
4959;SDS011;2495;48.200;11.532;2023-05-10T07:39:00;12.77;;;12.15;;
4959;SDS011;2495;48.200;11.532;2023-05-10T07:44:01;6.65;;;6.35;;
4959;SDS011;2495;48.200;11.532;2023-05-10T07:49:03;6.00;;;5.70;;
4959;SDS011;2495;48.200;11.532;2023-05-10T07:54:05;7.50;;;7.10;;
4959;SDS011;2495;48.200;11.532;2023-05-10T07:59:06;11.20;;;10.70;;
4959;SDS011;2495;48.200;11.532;2023-05-10T08:04:07;10.30;;;9.80;;
4959;SDS011;2495;48.200;11.532;2023-05-10T08:09:08;2.05;;;1.95;;
4959;SDS011;2495;48.200;11.532;2023-05-10T08:14:20;1.73;;;1.63;;
4959;SDS011;2495;48.200;11.532;2023-05-10T08:19:25;1.10;;;0.80;;
4959;SDS011;2495;48.200;11.532;2023-05-10T08:24:26;1.10;;;0.80;;
4959;SDS011;2495;48.200;11.532;2023-05-10T08:29:27;1.10;;;0.90;;
4959;SDS011;2495;48.200;11.532;2023-05-10T08:34:29;1.20;;;1.00;;
4959;SDS011;2495;48.200;11.532;2023-05-10T08:39:33;1.10;;;0.80;;
4959;SDS011;2495;48.200;11.532;2023-05-10T08:44:32;1.30;;;1.13;;
4959;SDS011;2495;48.200;11.532;2023-05-10T08:49:33;1.10;;;0.70;;
4959;SDS011;2495;48.200;11.532;2023-05-10T08:54:34;1.20;;;0.90;;
4959;SDS011;2495;48.200;11.532;2023-05-10T08:59:35;1.00;;;0.60;;
4959;SDS011;2495;48.200;11.532;2023-05-10T09:05:02;1.10;;;0.50;;
4959;SDS011;2495;48.200;11.532;2023-05-10T09:10:04;1.10;;;0.70;;
4959;SDS011;2495;48.200;11.532;2023-05-10T09:15:08;1.07;;;0.70;;
4959;SDS011;2495;48.200;11.532;2023-05-10T09:20:10;1.10;;;0.70;;
4959;SDS011;2495;48.200;11.532;2023-05-10T09:25:12;1.10;;;0.70;;
4959;SDS011;2495;48.200;11.532;2023-05-10T09:30:15;1.10;;;0.70;;
4959;SDS011;2495;48.200;11.532;2023-05-10T09:35:17;1.00;;;0.50;;
4959;SDS011;2495;48.200;11.532;2023-05-10T09:40:18;1.00;;;0.50;;
4959;SDS011;2495;48.200;11.532;2023-05-10T09:45:19;1.00;;;0.60;;
4959;SDS011;2495;48.200;11.532;2023-05-10T09:50:20;1.00;;;0.60;;
4959;SDS011;2495;48.200;11.532;2023-05-10T09:55:22;1.00;;;0.60;;
4959;SDS011;2495;48.200;11.532;2023-05-10T10:00:23;1.00;;;0.60;;
4959;SDS011;2495;48.200;11.532;2023-05-10T10:05:28;1.00;;;0.60;;
4959;SDS011;2495;48.200;11.532;2023-05-10T10:10:29;1.00;;;0.60;;
4959;SDS011;2495;48.200;11.532;2023-05-10T10:15:30;1.20;;;0.60;;
4959;SDS011;2495;48.200;11.532;2023-05-10T10:20:31;1.00;;;0.60;;
4959;SDS011;2495;48.200;11.532;2023-05-10T10:25:32;1.00;;;0.50;;
4959;SDS011;2495;48.200;11.532;2023-05-10T10:30:35;1.00;;;0.50;;
4959;SDS011;2495;48.200;11.532;2023-05-10T10:35:37;1.00;;;0.50;;
4959;SDS011;2495;48.200;11.532;2023-05-10T10:40:39;1.10;;;0.50;;
4959;SDS011;2495;48.200;11.532;2023-05-10T10:45:40;1.00;;;0.50;;
4959;SDS011;2495;48.200;11.532;2023-05-10T10:50:45;1.00;;;0.50;;
4959;SDS011;2495;48.200;11.532;2023-05-10T10:55:46;1.00;;;0.50;;
4959;SDS011;2495;48.200;11.532;2023-05-10T11:00:47;5.67;;;0.80;;
4959;SDS011;2495;48.200;11.532;2023-05-10T11:05:48;1.00;;;0.50;;
4959;SDS011;2495;48.200;11.532;2023-05-10T11:16:15;1.00;;;0.50;;
4959;SDS011;2495;48.200;11.532;2023-05-10T11:21:16;1.00;;;0.50;;
4959;SDS011;2495;48.200;11.532;2023-05-10T11:26:18;1.00;;;0.50;;
4959;SDS011;2495;48.200;11.532;2023-05-10T11:31:19;1.00;;;0.50;;
4959;SDS011;2495;48.200;11.532;2023-05-10T11:36:20;1.00;;;0.50;;
4959;SDS011;2495;48.200;11.532;2023-05-10T11:41:21;1.00;;;0.50;;
4959;SDS011;2495;48.200;11.532;2023-05-10T11:46:23;1.00;;;0.50;;
4959;SDS011;2495;48.200;11.532;2023-05-10T11:51:24;1.00;;;0.50;;
4959;SDS011;2495;48.200;11.532;2023-05-10T11:56:25;1.00;;;0.50;;
4959;SDS011;2495;48.200;11.532;2023-05-10T12:01:26;1.00;;;0.50;;
4959;SDS011;2495;48.200;11.532;2023-05-10T12:06:28;1.00;;;0.50;;
4959;SDS011;2495;48.200;11.532;2023-05-10T12:11:29;1.00;;;0.50;;
4959;SDS011;2495;48.200;11.532;2023-05-10T12:16:30;1.00;;;0.50;;
4959;SDS011;2495;48.200;11.532;2023-05-10T12:21:31;1.10;;;0.50;;
4959;SDS011;2495;48.200;11.532;2023-05-10T12:26:32;1.00;;;0.50;;
4959;SDS011;2495;48.200;11.532;2023-05-10T12:31:43;1.00;;;0.60;;
4959;SDS011;2495;48.200;11.532;2023-05-10T12:36:35;1.00;;;0.60;;
4959;SDS011;2495;48.200;11.532;2023-05-10T12:41:36;1.00;;;0.50;;
4959;SDS011;2495;48.200;11.532;2023-05-10T12:46:38;1.00;;;0.60;;
4959;SDS011;2495;48.200;11.532;2023-05-10T12:51:39;1.00;;;0.60;;
4959;SDS011;2495;48.200;11.532;2023-05-10T12:56:41;1.20;;;0.80;;
4959;SDS011;2495;48.200;11.532;2023-05-10T13:01:42;1.10;;;0.70;;
4959;SDS011;2495;48.200;11.532;2023-05-10T13:06:44;1.00;;;0.60;;
4959;SDS011;2495;48.200;11.532;2023-05-10T13:11:45;1.00;;;0.60;;
4959;SDS011;2495;48.200;11.532;2023-05-10T13:16:47;1.00;;;0.60;;
4959;SDS011;2495;48.200;11.532;2023-05-10T13:21:48;0.93;;;0.50;;
4959;SDS011;2495;48.200;11.532;2023-05-10T13:26:49;1.00;;;0.60;;
4959;SDS011;2495;48.200;11.532;2023-05-10T13:31:50;1.20;;;1.00;;
4959;SDS011;2495;48.200;11.532;2023-05-10T13:36:52;1.00;;;0.63;;
4959;SDS011;2495;48.200;11.532;2023-05-10T13:41:53;1.00;;;0.50;;
4959;SDS011;2495;48.200;11.532;2023-05-10T13:46:55;1.00;;;0.50;;
4959;SDS011;2495;48.200;11.532;2023-05-10T13:51:55;1.00;;;0.50;;
4959;SDS011;2495;48.200;11.532;2023-05-10T13:56:57;1.00;;;0.50;;
4959;SDS011;2495;48.200;11.532;2023-05-10T14:01:58;1.10;;;0.70;;
4959;SDS011;2495;48.200;11.532;2023-05-10T14:06:59;1.10;;;0.90;;
4959;SDS011;2495;48.200;11.532;2023-05-10T14:12:01;1.10;;;0.70;;
4959;SDS011;2495;48.200;11.532;2023-05-10T14:17:02;1.10;;;0.80;;
4959;SDS011;2495;48.200;11.532;2023-05-10T14:22:03;1.00;;;0.60;;
4959;SDS011;2495;48.200;11.532;2023-05-10T14:27:05;1.37;;;1.27;;
4959;SDS011;2495;48.200;11.532;2023-05-10T14:32:06;1.20;;;1.10;;
4959;SDS011;2495;48.200;11.532;2023-05-10T14:37:09;1.40;;;1.30;;
4959;SDS011;2495;48.200;11.532;2023-05-10T14:42:09;1.50;;;1.40;;
4959;SDS011;2495;48.200;11.532;2023-05-10T14:47:10;1.50;;;1.40;;
4959;SDS011;2495;48.200;11.532;2023-05-10T14:52:11;2.80;;;2.60;;
4959;SDS011;2495;48.200;11.532;2023-05-10T14:57:12;4.10;;;3.90;;
4959;SDS011;2495;48.200;11.532;2023-05-10T15:02:14;6.70;;;6.40;;
4959;SDS011;2495;48.200;11.532;2023-05-10T15:07:15;9.57;;;9.10;;
4959;SDS011;2495;48.200;11.532;2023-05-10T15:12:17;10.07;;;9.57;;
4959;SDS011;2495;48.200;11.532;2023-05-10T15:17:18;8.90;;;8.50;;
4959;SDS011;2495;48.200;11.532;2023-05-10T15:22:19;18.60;;;17.70;;
4959;SDS011;2495;48.200;11.532;2023-05-10T15:27:21;16.10;;;15.30;;
4959;SDS011;2495;48.200;11.532;2023-05-10T15:32:22;17.30;;;16.50;;
4959;SDS011;2495;48.200;11.532;2023-05-10T15:37:23;14.40;;;13.70;;
4959;SDS011;2495;48.200;11.532;2023-05-10T15:42:24;18.50;;;17.60;;
4959;SDS011;2495;48.200;11.532;2023-05-10T15:47:26;8.90;;;8.50;;
4959;SDS011;2495;48.200;11.532;2023-05-10T15:52:27;15.77;;;14.97;;
4959;SDS011;2495;48.200;11.532;2023-05-10T15:57:28;22.47;;;21.37;;
4959;SDS011;2495;48.200;11.532;2023-05-10T16:02:30;23.83;;;22.63;;
4959;SDS011;2495;48.200;11.532;2023-05-10T16:07:31;14.60;;;13.90;;
4959;SDS011;2495;48.200;11.532;2023-05-10T16:12:32;19.50;;;18.60;;
4959;SDS011;2495;48.200;11.532;2023-05-10T16:17:34;16.40;;;15.60;;
4959;SDS011;2495;48.200;11.532;2023-05-10T16:22:35;17.67;;;16.77;;
4959;SDS011;2495;48.200;11.532;2023-05-10T16:27:36;21.90;;;20.80;;
4959;SDS011;2495;48.200;11.532;2023-05-10T16:32:37;17.17;;;16.37;;
4959;SDS011;2495;48.200;11.532;2023-05-10T16:37:39;23.60;;;22.40;;
4959;SDS011;2495;48.200;11.532;2023-05-10T16:42:40;16.17;;;15.38;;
4959;SDS011;2495;48.200;11.532;2023-05-10T16:47:42;23.40;;;22.20;;
4959;SDS011;2495;48.200;11.532;2023-05-10T16:52:43;23.40;;;22.20;;
4959;SDS011;2495;48.200;11.532;2023-05-10T16:57:44;18.37;;;17.48;;
4959;SDS011;2495;48.200;11.532;2023-05-10T17:02:46;20.20;;;19.20;;
4959;SDS011;2495;48.200;11.532;2023-05-10T17:07:47;18.55;;;17.65;;
4959;SDS011;2495;48.200;11.532;2023-05-10T17:12:48;14.60;;;13.90;;
4959;SDS011;2495;48.200;11.532;2023-05-10T17:17:50;20.50;;;19.50;;
4959;SDS011;2495;48.200;11.532;2023-05-10T17:22:51;19.77;;;18.77;;
4959;SDS011;2495;48.200;11.532;2023-05-10T17:27:52;24.10;;;22.90;;
4959;SDS011;2495;48.200;11.532;2023-05-10T17:32:57;17.70;;;16.80;;
4959;SDS011;2495;48.200;11.532;2023-05-10T17:38:04;19.17;;;18.27;;
4959;SDS011;2495;48.200;11.532;2023-05-10T17:43:05;23.03;;;21.87;;
4959;SDS011;2495;48.200;11.532;2023-05-10T17:48:07;17.80;;;16.90;;
4959;SDS011;2495;48.200;11.532;2023-05-10T17:53:08;25.00;;;23.70;;
4959;SDS011;2495;48.200;11.532;2023-05-10T17:58:10;25.50;;;24.10;;
4959;SDS011;2495;48.200;11.532;2023-05-10T18:03:11;22.33;;;21.12;;
4959;SDS011;2495;48.200;11.532;2023-05-10T18:08:12;26.10;;;24.60;;
4959;SDS011;2495;48.200;11.532;2023-05-10T18:13:13;27.10;;;25.50;;
4959;SDS011;2495;48.200;11.532;2023-05-10T18:18:15;26.30;;;24.70;;
4959;SDS011;2495;48.200;11.532;2023-05-10T18:23:16;26.20;;;24.60;;
4959;SDS011;2495;48.200;11.532;2023-05-10T18:28:17;26.50;;;24.80;;
4959;SDS011;2495;48.200;11.532;2023-05-10T18:33:19;23.30;;;21.80;;
4959;SDS011;2495;48.200;11.532;2023-05-10T18:38:20;26.87;;;25.07;;
4959;SDS011;2495;48.200;11.532;2023-05-10T18:43:21;27.10;;;25.30;;
4959;SDS011;2495;48.200;11.532;2023-05-10T18:48:23;23.70;;;22.10;;
4959;SDS011;2495;48.200;11.532;2023-05-10T18:53:24;23.90;;;22.20;;
4959;SDS011;2495;48.200;11.532;2023-05-10T18:58:34;23.60;;;22.00;;
4959;SDS011;2495;48.200;11.532;2023-05-10T19:03:36;26.67;;;24.87;;
4959;SDS011;2495;48.200;11.532;2023-05-10T19:08:37;26.70;;;24.90;;
4959;SDS011;2495;48.200;11.532;2023-05-10T19:13:39;26.13;;;24.43;;
4959;SDS011;2495;48.200;11.532;2023-05-10T19:18:40;26.87;;;25.07;;
4959;SDS011;2495;48.200;11.532;2023-05-10T19:23:41;26.50;;;24.80;;
4959;SDS011;2495;48.200;11.532;2023-05-10T19:28:43;26.43;;;24.73;;
4959;SDS011;2495;48.200;11.532;2023-05-10T19:33:44;23.10;;;21.60;;
4959;SDS011;2495;48.200;11.532;2023-05-10T19:38:46;27.00;;;25.20;;
4959;SDS011;2495;48.200;11.532;2023-05-10T19:43:47;23.60;;;22.00;;
4959;SDS011;2495;48.200;11.532;2023-05-10T19:48:48;26.90;;;25.10;;
4959;SDS011;2495;48.200;11.532;2023-05-10T19:53:51;26.93;;;25.13;;
4959;SDS011;2495;48.200;11.532;2023-05-10T19:58:55;23.73;;;22.13;;
4959;SDS011;2495;48.200;11.532;2023-05-10T20:03:57;27.20;;;25.40;;
4959;SDS011;2495;48.200;11.532;2023-05-10T20:08:58;26.40;;;24.70;;
4959;SDS011;2495;48.200;11.532;2023-05-10T20:13:59;23.40;;;21.90;;
4959;SDS011;2495;48.200;11.532;2023-05-10T20:19:01;23.63;;;22.03;;
4959;SDS011;2495;48.200;11.532;2023-05-10T20:24:02;27.10;;;25.30;;
4959;SDS011;2495;48.200;11.532;2023-05-10T20:29:04;27.10;;;25.30;;
4959;SDS011;2495;48.200;11.532;2023-05-10T20:34:06;26.73;;;25.00;;
4959;SDS011;2495;48.200;11.532;2023-05-10T20:39:12;28.10;;;26.13;;
4959;SDS011;2495;48.200;11.532;2023-05-10T20:44:25;24.03;;;22.33;;
4959;SDS011;2495;48.200;11.532;2023-05-10T20:49:29;27.47;;;25.57;;
4959;SDS011;2495;48.200;11.532;2023-05-10T20:54:28;26.70;;;24.80;;
4959;SDS011;2495;48.200;11.532;2023-05-10T20:59:30;26.90;;;25.00;;
4959;SDS011;2495;48.200;11.532;2023-05-10T21:04:32;26.20;;;24.47;;
4959;SDS011;2495;48.200;11.532;2023-05-10T21:09:39;26.80;;;24.90;;
4959;SDS011;2495;48.200;11.532;2023-05-10T21:14:42;27.10;;;25.20;;
4959;SDS011;2495;48.200;11.532;2023-05-10T21:19:46;27.27;;;25.30;;
4959;SDS011;2495;48.200;11.532;2023-05-10T21:24:47;27.27;;;25.37;;
4959;SDS011;2495;48.200;11.532;2023-05-10T21:29:55;26.90;;;25.00;;
4959;SDS011;2495;48.200;11.532;2023-05-10T21:35:07;26.83;;;24.93;;
4959;SDS011;2495;48.200;11.532;2023-05-10T21:40:09;26.90;;;25.00;;
4959;SDS011;2495;48.200;11.532;2023-05-10T21:45:11;27.17;;;25.27;;
4959;SDS011;2495;48.200;11.532;2023-05-10T21:50:18;27.17;;;25.17;;
4959;SDS011;2495;48.200;11.532;2023-05-10T21:55:48;29.50;;;27.40;;
4959;SDS011;2495;48.200;11.532;2023-05-10T22:01:02;26.57;;;24.67;;
4959;SDS011;2495;48.200;11.532;2023-05-10T22:06:06;27.90;;;26.00;;
4959;SDS011;2495;48.200;11.532;2023-05-10T23:12:31;23.90;;;22.20;;
4959;SDS011;2495;48.200;11.532;2023-05-10T23:17:33;27.80;;;25.80;;
4959;SDS011;2495;48.200;11.532;2023-05-10T23:22:34;27.53;;;25.53;;
4959;SDS011;2495;48.200;11.532;2023-05-10T23:27:58;27.70;;;25.70;;
4959;SDS011;2495;48.200;11.532;2023-05-10T23:33:00;27.60;;;25.60;;
4959;SDS011;2495;48.200;11.532;2023-05-10T23:38:01;27.60;;;25.60;;
4959;SDS011;2495;48.200;11.532;2023-05-10T23:43:02;27.70;;;25.70;;
4959;SDS011;2495;48.200;11.532;2023-05-10T23:48:04;27.90;;;25.90;;
4959;SDS011;2495;48.200;11.532;2023-05-10T23:53:05;24.40;;;22.60;;
4959;SDS011;2495;48.200;11.532;2023-05-10T23:58:06;29.40;;;27.20;;
